Flight Track Log - Related Links

Times and Time Zones

All times are in EDT time to prevent confusion due to time zone crossing. See the N572EC flight status page for this flight to view local times or setup timezone preferences in your user account.


Time Position Orientation Groundspeed Altitude Reporting Facility
EDT Latitude Longitude Course Direction KTS MPH feet Rate Location/Type
Fri 08:22:16 AM 26.7256 -79.9989 270° West 261 300 6,900  Level Miami Center
Fri 08:23:16 AM 26.8086 -80.0150 350° North 284 327 9,800 2,550 Climbing Miami Center
Fri 08:24:16 AM 26.8358 -80.1114 288° West 288 331 12,000 2,000 Climbing Miami Center
Fri 08:25:16 AM 26.8481 -80.2142 278° West 338 389 13,800 1,000 Climbing Miami Center
Fri 08:26:00 AM 26.8500 -80.3138 270° West  Level FlightAware Approximate
Fri 08:26:16 AM 26.8850 -80.3244 291° West 375 432 14,000  Level Miami Center
Fri 08:27:16 AM 26.9750 -80.4133 319° Northwest 391 450 17,200 2,750 Climbing Miami Center
Fri 08:28:16 AM 27.0756 -80.4772 331° Northwest 403 464 19,500 2,650 Climbing Miami Center
Fri 08:29:16 AM 27.1806 -80.5389 332° Northwest 408 470 22,500 2,500 Climbing Miami Center
Fri 08:30:16 AM 27.2856 -80.6006 332° Northwest 418 481 24,500 1,950 Climbing Miami Center
Fri 08:31:16 AM 27.3944 -80.6650 332° Northwest 429 494 26,400 1,250 Climbing Miami Center
Fri 08:32:16 AM 27.5075 -80.7294 333° Northwest 441 507 27,000 300 Climbing Miami Center
Fri 08:33:16 AM 27.6206 -80.7919 334° Northwest 449 517 27,000  Level Miami Center
Fri 08:34:16 AM 27.7336 -80.8614 331° Northwest 454 522 27,000  Level Miami Center
Fri 08:35:16 AM 27.8336 -80.9447 324° Northwest 454 522 27,000  Level Miami Center
Fri 08:36:16 AM 27.9289 -81.0375 319° Northwest 454 522 27,000  Level Miami Center
Fri 08:37:16 AM 28.0139 -81.1325 315° West 459 528 27,000  Level Miami Center
Fri 08:38:16 AM 28.1281 -81.2214 326° Northwest 464 534 27,000  Level Miami Center
Fri 08:39:16 AM 28.2497 -81.2614 344° North 448 516 27,000  Level Miami Center
Fri 08:41:15 AM 28.4889 -81.3219 347° North 456 525 27,000 -402 Level Jacksonville Center
Fri 08:42:15 AM 28.6122 -81.3458 350° North 451 519 25,800 -1,550 Descending Jacksonville Center
Fri 08:43:15 AM 28.7375 -81.3583 355° North 451 519 23,900 -1,900 Descending Jacksonville Center
Fri 08:44:15 AM 28.8550 -81.3944 345° North 439 505 22,000 -1,000 Descending Jacksonville Center
Fri 08:45:15 AM 28.9639 -81.4450 338° Northwest 424 488 21,900 -750 Descending Jacksonville Center
Fri 08:46:15 AM 29.0831 -81.4550 356° North 424 488 20,500 -1,450 Descending Jacksonville Center
Fri 08:47:15 AM 29.2003 -81.4725 353° North 424 488 19,000 -1,450 Descending Jacksonville Center
Fri 08:48:15 AM 29.3256 -81.4897 353° North 419 482 17,600 -1,300 Descending Jacksonville Center
Fri 08:49:15 AM 29.4428 -81.5022 355° North 419 482 16,400 -1,200 Descending Jacksonville Center
Fri 08:50:15 AM 29.5556 -81.5150 354° North 414 476 15,200 -1,250 Descending Jacksonville Center
Fri 08:51:15 AM 29.6642 -81.5253 355° North 404 465 13,900 -1,100 Descending Jacksonville Center
Fri 08:52:15 AM 29.7728 -81.5358 355° North 398 458 13,000 -550 Descending Jacksonville Center
Fri 08:53:15 AM 29.8814 -81.5464 355° North 393 452 12,800 -800 Descending Jacksonville Center
Fri 08:54:15 AM 29.9881 -81.5519 357° North 387 445 11,400 -1,600 Descending Jacksonville Center
Fri 08:55:15 AM 30.0842 -81.5531 359° North 368 423 9,600 -1,750 Descending Jacksonville Center
Fri 08:56:15 AM 30.1739 -81.5542 359° North 339 390 7,900 -1,800 Descending Jacksonville Center
Fri 08:57:15 AM 30.2511 -81.5556 359° North 316 364 6,000 -1,850 Descending Jacksonville Center
Fri 08:58:15 AM 30.3347 -81.5544 North 300 345 4,200 -1,550 Descending Jacksonville Center
Fri 08:59:15 AM 30.4097 -81.5364 12° North 287 330 2,900 -864 Descending Jacksonville Center
Fri 09:00:27 AM 30.4928 -81.5064 17° North 240 276 2,300 -500 Descending Jacksonville Center

Login

Don't have an account? Register now (free) for customized features, flight alerts, and more!